Time;durP1;ratioP1;P1;durP2;ratioP2;P2;SDS_P1;SDS_P2;PMS_P1;PMS_P2;Temp;Humidity;BMP_temperature;BMP_pressure;BME280_temperature;BME280_humidity;BME280_pressure;Samples;Min_cycle;Max_cycle;Signal;HPM_P1;HPM_P2
2023/03/07 00:03:43;;;;;;;40.78;25.45;;;;;;;;;;10323431;28;20527;-81
2023/03/07 00:08:45;;;;;;;46.65;23.75;;;;;;;;;;10324325;28;20914;-81
2023/03/07 00:13:47;;;;;;;45.38;25.33;;;;;;;;;;10330481;28;20412;-81
2023/03/07 00:18:51;;;;;;;48.20;25.95;;;;;;;;;;10331976;28;20404;-81
2023/03/07 00:23:53;;;;;;;45.17;25.23;;;;;;;;;;10329949;28;20433;-81
2023/03/07 00:28:55;;;;;;;50.93;26.90;;;;;;;;;;10327691;28;20417;-80
2023/03/07 00:33:58;;;;;;;47.67;27.48;;;;;;;;;;10331676;28;20426;-80
2023/03/07 00:39:00;;;;;;;47.92;27.67;;;;;;;;;;10330376;28;20480;-81
2023/03/07 00:44:02;;;;;;;47.67;27.40;;;;;;;;;;10331127;28;20786;-81
2023/03/07 00:49:05;;;;;;;49.90;28.38;;;;;;;;;;10331321;28;20444;-81
2023/03/07 00:54:07;;;;;;;48.70;27.77;;;;;;;;;;10330506;28;20413;-81
2023/03/07 00:59:09;;;;;;;45.80;27.95;;;;;;;;;;10329927;28;21094;-80
2023/03/07 01:04:12;;;;;;;45.78;27.92;;;;;;;;;;10328439;28;20425;-81
2023/03/07 01:09:14;;;;;;;50.60;27.95;;;;;;;;;;10329143;28;20499;-81
2023/03/07 01:14:16;;;;;;;51.80;28.35;;;;;;;;;;10329570;28;20405;-81
2023/03/07 01:19:19;;;;;;;46.97;27.88;;;;;;;;;;10327500;28;20413;-81
2023/03/07 01:24:21;;;;;;;50.53;27.73;;;;;;;;;;10328157;28;20533;-81
2023/03/07 01:29:22;;;;;;;48.92;28.75;;;;;;;;;;10330395;28;20411;-81
2023/03/07 01:34:26;;;;;;;50.07;27.57;;;;;;;;;;10329419;28;20417;-81
2023/03/07 01:39:28;;;;;;;49.05;27.73;;;;;;;;;;10326510;28;20500;-81
2023/03/07 01:44:30;;;;;;;52.73;28.87;;;;;;;;;;10329322;28;20503;-81
2023/03/07 01:49:38;;;;;;;50.15;29.08;;;;;;;;;;10328562;28;20951;-81
2023/03/07 01:54:47;;;;;;;45.63;26.95;;;;;;;;;;10328020;28;20855;-81
2023/03/07 01:59:52;;;;;;;50.60;28.20;;;;;;;;;;10328800;28;20417;-80
2023/03/07 02:05:01;;;;;;;48.90;28.40;;;;;;;;;;10323844;28;20851;-81
2023/03/07 02:10:05;;;;;;;53.10;29.70;;;;;;;;;;10326554;28;20493;-81
2023/03/07 02:15:09;;;;;;;48.05;28.10;;;;;;;;;;10326710;28;20403;-80
2023/03/07 02:20:28;;;;;;;51.30;29.77;;;;;;;;;;10328951;28;20442;-81
2023/03/07 02:25:36;;;;;;;48.33;28.43;;;;;;;;;;10327488;28;20974;-81
2023/03/07 02:30:53;;;;;;;50.80;28.63;;;;;;;;;;10326982;28;20413;-81
2023/03/07 02:35:58;;;;;;;49.28;27.88;;;;;;;;;;10325563;28;25144;-81
2023/03/07 02:41:00;;;;;;;49.80;28.07;;;;;;;;;;10325968;28;20435;-81
2023/03/07 02:46:03;;;;;;;49.40;28.35;;;;;;;;;;10326164;28;20425;-81
2023/03/07 02:51:05;;;;;;;48.17;28.37;;;;;;;;;;10326275;28;20496;-81
2023/03/07 02:56:07;;;;;;;52.03;28.20;;;;;;;;;;10326015;28;20974;-81
2023/03/07 03:01:11;;;;;;;48.78;28.42;;;;;;;;;;10326717;28;20437;-81
2023/03/07 03:06:13;;;;;;;55.97;29.95;;;;;;;;;;10326283;28;20761;-79
2023/03/07 03:11:14;;;;;;;52.10;27.95;;;;;;;;;;10325194;28;20489;-80
2023/03/07 03:16:18;;;;;;;52.97;29.10;;;;;;;;;;10323156;28;20891;-80
2023/03/07 03:21:19;;;;;;;57.57;30.27;;;;;;;;;;10324822;28;20450;-80
2023/03/07 03:26:21;;;;;;;52.88;29.15;;;;;;;;;;10323927;28;20452;-80
2023/03/07 03:31:24;;;;;;;56.97;31.17;;;;;;;;;;10323988;28;20481;-80
2023/03/07 03:36:27;;;;;;;56.97;29.58;;;;;;;;;;10325690;28;20412;-81
2023/03/07 03:41:29;;;;;;;54.43;29.53;;;;;;;;;;10326160;28;20519;-80
2023/03/07 03:46:32;;;;;;;51.92;29.23;;;;;;;;;;10331135;28;20906;-80
2023/03/07 03:51:34;;;;;;;53.00;28.05;;;;;;;;;;10333654;28;20756;-80
2023/03/07 03:56:35;;;;;;;56.13;29.85;;;;;;;;;;10333311;28;20800;-80
2023/03/07 04:01:39;;;;;;;52.03;28.87;;;;;;;;;;10332891;28;20434;-80
2023/03/07 04:06:42;;;;;;;49.50;26.80;;;;;;;;;;10329586;28;20409;-80
2023/03/07 04:11:43;;;;;;;49.33;26.07;;;;;;;;;;10332090;28;20412;-80
2023/03/07 04:16:47;;;;;;;52.65;27.48;;;;;;;;;;10332476;28;20879;-80
2023/03/07 04:21:48;;;;;;;48.72;27.60;;;;;;;;;;10332098;28;20428;-80
2023/03/07 04:26:50;;;;;;;45.67;26.80;;;;;;;;;;10333017;28;20410;-80
2023/03/07 04:31:53;;;;;;;50.37;26.97;;;;;;;;;;10331998;28;20500;-80
2023/03/07 04:36:55;;;;;;;48.70;27.33;;;;;;;;;;10329534;28;20437;-80
2023/03/07 04:41:57;;;;;;;45.90;25.65;;;;;;;;;;10331518;28;20436;-81
2023/03/07 04:47:00;;;;;;;46.08;25.85;;;;;;;;;;10331524;28;20495;-80
2023/03/07 04:52:02;;;;;;;50.40;26.63;;;;;;;;;;10331208;28;20783;-80
2023/03/07 04:57:04;;;;;;;47.43;25.87;;;;;;;;;;10325175;28;20820;-80
2023/03/07 05:02:08;;;;;;;44.67;25.70;;;;;;;;;;10328367;28;20459;-81
2023/03/07 05:07:09;;;;;;;46.28;25.30;;;;;;;;;;10328826;28;20447;-80
2023/03/07 05:12:11;;;;;;;44.50;25.10;;;;;;;;;;10330169;28;20484;-80
2023/03/07 05:17:15;;;;;;;48.45;27.02;;;;;;;;;;10329872;28;20432;-81
2023/03/07 05:22:17;;;;;;;44.10;25.85;;;;;;;;;;10325419;28;20453;-80
2023/03/07 05:27:18;;;;;;;49.95;28.50;;;;;;;;;;10328607;28;20501;-82
2023/03/07 05:32:22;;;;;;;51.97;28.80;;;;;;;;;;10327794;28;20399;-81
2023/03/07 05:37:23;;;;;;;46.40;26.35;;;;;;;;;;10329170;28;20412;-82
2023/03/07 05:42:25;;;;;;;46.97;26.93;;;;;;;;;;10328527;28;20420;-82
2023/03/07 05:47:30;;;;;;;50.35;26.67;;;;;;;;;;10325422;28;20399;-81
2023/03/07 05:52:32;;;;;;;47.57;25.73;;;;;;;;;;10325838;28;20413;-81
2023/03/07 05:57:33;;;;;;;53.30;28.40;;;;;;;;;;10327521;28;20431;-81
2023/03/07 06:02:37;;;;;;;45.47;26.35;;;;;;;;;;10326912;28;20435;-81
2023/03/07 06:07:38;;;;;;;49.40;26.77;;;;;;;;;;10323516;28;20441;-81
2023/03/07 06:12:40;;;;;;;51.10;26.70;;;;;;;;;;10328996;28;20442;-82
2023/03/07 06:17:43;;;;;;;52.23;27.80;;;;;;;;;;10326293;28;21028;-82
2023/03/07 06:22:45;;;;;;;49.40;27.45;;;;;;;;;;10326231;28;21097;-82
2023/03/07 06:27:47;;;;;;;53.03;28.13;;;;;;;;;;10324031;28;20725;-82
2023/03/07 06:32:50;;;;;;;52.72;28.95;;;;;;;;;;10320215;28;20425;-82
2023/03/07 06:37:52;;;;;;;56.88;30.23;;;;;;;;;;10311674;28;20864;-84
2023/03/07 06:42:54;;;;;;;56.20;29.30;;;;;;;;;;10318807;23;20386;-79
2023/03/07 06:47:57;;;;;;;53.20;28.90;;;;;;;;;;10357040;28;20438;-80
2023/03/07 06:52:59;;;;;;;54.72;30.35;;;;;;;;;;10353490;28;20435;-80
2023/03/07 06:58:01;;;;;;;55.15;29.98;;;;;;;;;;10356378;28;20524;-81
2023/03/07 07:03:04;;;;;;;55.15;30.58;;;;;;;;;;10352099;28;20800;-81
2023/03/07 07:08:06;;;;;;;58.05;30.98;;;;;;;;;;10356382;28;20415;-81
2023/03/07 07:13:08;;;;;;;58.67;31.77;;;;;;;;;;10358269;28;20499;-80
2023/03/07 07:18:13;;;;;;;58.37;30.60;;;;;;;;;;10354851;28;20447;-80
2023/03/07 07:23:15;;;;;;;57.93;31.07;;;;;;;;;;10344085;28;20462;-80
2023/03/07 07:28:17;;;;;;;59.63;31.85;;;;;;;;;;10354277;28;20777;-81
2023/03/07 07:33:20;;;;;;;57.38;30.55;;;;;;;;;;10345895;28;20412;-80
2023/03/07 07:38:22;;;;;;;54.33;31.20;;;;;;;;;;10313801;28;20413;-80
2023/03/07 07:43:24;;;;;;;54.10;30.23;;;;;;;;;;10341468;28;20436;-80
2023/03/07 07:48:27;;;;;;;59.53;32.07;;;;;;;;;;10337666;28;20475;-81
2023/03/07 07:53:29;;;;;;;54.53;30.90;;;;;;;;;;10351607;28;20417;-80
2023/03/07 07:58:31;;;;;;;51.65;28.73;;;;;;;;;;10339978;28;20422;-80
2023/03/07 08:03:34;;;;;;;54.03;29.05;;;;;;;;;;10344541;28;20927;-80
2023/03/07 08:08:36;;;;;;;50.08;28.60;;;;;;;;;;10345754;28;20532;-81
2023/03/07 08:13:37;;;;;;;47.60;25.23;;;;;;;;;;10356537;28;20489;-80
2023/03/07 08:18:41;;;;;;;46.10;24.73;;;;;;;;;;10336434;28;20417;-81
2023/03/07 08:23:42;;;;;;;46.97;25.67;;;;;;;;;;10350979;28;20423;-81
2023/03/07 08:28:44;;;;;;;47.80;26.50;;;;;;;;;;10344593;28;20410;-81
2023/03/07 08:33:47;;;;;;;46.50;25.93;;;;;;;;;;10345300;28;20410;-81
2023/03/07 08:38:53;;;;;;;37.67;20.03;;;;;;;;;;10347491;28;20435;-80
2023/03/07 08:43:54;;;;;;;36.90;20.40;;;;;;;;;;10327055;28;20424;-80
2023/03/07 08:48:58;;;;;;;44.63;22.63;;;;;;;;;;10357110;28;20483;-80
2023/03/07 08:53:59;;;;;;;42.90;23.05;;;;;;;;;;10345906;28;20400;-80
2023/03/07 08:59:01;;;;;;;34.65;19.48;;;;;;;;;;10351206;28;20486;-80
2023/03/07 09:04:04;;;;;;;30.92;18.90;;;;;;;;;;10352821;28;20435;-80
2023/03/07 09:09:06;;;;;;;31.53;18.87;;;;;;;;;;10344942;28;20411;-80
2023/03/07 09:14:08;;;;;;;34.80;18.63;;;;;;;;;;10352675;28;20518;-80
2023/03/07 09:19:12;;;;;;;37.35;20.48;;;;;;;;;;10349734;28;20407;-80
2023/03/07 09:24:13;;;;;;;35.60;19.30;;;;;;;;;;10338327;28;20510;-79
2023/03/07 09:29:15;;;;;;;31.93;16.47;;;;;;;;;;10358292;28;20967;-81
2023/03/07 09:34:18;;;;;;;32.42;18.42;;;;;;;;;;10337874;28;20416;-80
2023/03/07 09:39:20;;;;;;;32.47;19.17;;;;;;;;;;10349041;28;20960;-80
2023/03/07 09:44:36;;;;;;;31.23;18.63;;;;;;;;;;10344750;28;20541;-80
2023/03/07 09:49:46;;;;;;;37.50;19.95;;;;;;;;;;10319528;28;21081;-80
2023/03/07 09:54:53;;;;;;;35.05;19.63;;;;;;;;;;10342329;28;20417;-80
2023/03/07 09:59:59;;;;;;;33.35;19.48;;;;;;;;;;10351990;28;20411;-81
2023/03/07 10:05:11;;;;;;;34.40;20.58;;;;;;;;;;10350969;28;20429;-81
2023/03/07 10:10:20;;;;;;;35.45;21.02;;;;;;;;;;10342828;28;20921;-80
2023/03/07 10:15:46;;;;;;;37.55;21.63;;;;;;;;;;10347076;28;20753;-80
2023/03/07 10:20:52;;;;;;;41.40;23.37;;;;;;;;;;10332571;28;20770;-81
2023/03/07 10:26:01;;;;;;;39.33;23.40;;;;;;;;;;10349554;28;20507;-80
2023/03/07 10:31:15;;;;;;;42.65;23.77;;;;;;;;;;10338541;28;20401;-80
2023/03/07 10:36:21;;;;;;;40.90;23.53;;;;;;;;;;10345918;28;20403;-81
2023/03/07 10:41:23;;;;;;;38.67;23.67;;;;;;;;;;10344283;28;20413;-80
2023/03/07 10:46:28;;;;;;;43.55;24.55;;;;;;;;;;10331494;28;20856;-80
2023/03/07 10:51:43;;;;;;;45.05;25.52;;;;;;;;;;10349298;28;20440;-81
2023/03/07 10:57:05;;;;;;;41.87;24.53;;;;;;;;;;10355390;28;20442;-81
2023/03/07 11:02:30;;;;;;;42.65;23.83;;;;;;;;;;10352032;28;20426;-80
2023/03/07 11:07:35;;;;;;;42.88;24.88;;;;;;;;;;10345133;28;20417;-80
2023/03/07 11:12:45;;;;;;;42.05;25.52;;;;;;;;;;10352226;28;20786;-80
2023/03/07 11:17:48;;;;;;;44.00;24.67;;;;;;;;;;10330383;28;20417;-80
2023/03/07 11:23:13;;;;;;;39.50;23.33;;;;;;;;;;10351417;28;20424;-80
2023/03/07 11:28:26;;;;;;;40.97;22.37;;;;;;;;;;10350190;28;20412;-80
2023/03/07 11:33:42;;;;;;;41.75;23.27;;;;;;;;;;10341515;28;20487;-81
2023/03/07 11:38:59;;;;;;;39.13;24.15;;;;;;;;;;10345669;28;20494;-81
2023/03/07 11:44:20;;;;;;;48.10;27.37;;;;;;;;;;10346214;28;20856;-80
2023/03/07 11:49:38;;;;;;;43.85;24.92;;;;;;;;;;10348433;28;20424;-81
2023/03/07 11:54:52;;;;;;;41.95;22.73;;;;;;;;;;10331678;28;20484;-80
2023/03/07 12:00:16;;;;;;;42.38;23.58;;;;;;;;;;10348208;28;20908;-81
2023/03/07 12:05:32;;;;;;;42.73;24.67;;;;;;;;;;10343643;28;20497;-80
2023/03/07 12:10:48;;;;;;;39.53;23.30;;;;;;;;;;10340855;28;20450;-80
2023/03/07 12:15:59;;;;;;;37.95;22.42;;;;;;;;;;10348976;28;20513;-81
2023/03/07 12:21:12;;;;;;;37.63;21.80;;;;;;;;;;10337755;28;20408;-80
2023/03/07 12:26:22;;;;;;;44.60;22.77;;;;;;;;;;10355408;28;20423;-80
2023/03/07 12:31:28;;;;;;;43.10;23.23;;;;;;;;;;10342229;28;20794;-80
2023/03/07 12:36:34;;;;;;;40.70;24.23;;;;;;;;;;10341291;28;20410;-80
2023/03/07 12:41:46;;;;;;;37.77;23.23;;;;;;;;;;10349314;28;20411;-80
2023/03/07 12:46:53;;;;;;;38.35;20.90;;;;;;;;;;10332019;28;20901;-80
2023/03/07 12:51:59;;;;;;;31.83;19.33;;;;;;;;;;10339968;28;20507;-80
2023/03/07 12:57:08;;;;;;;34.28;19.58;;;;;;;;;;10338967;28;20408;-80
2023/03/07 13:02:13;;;;;;;32.85;20.05;;;;;;;;;;10339784;28;20420;-80
2023/03/07 13:07:18;;;;;;;33.78;20.33;;;;;;;;;;10341025;28;20414;-80
2023/03/07 13:12:31;;;;;;;32.37;17.87;;;;;;;;;;10353445;28;20409;-80
2023/03/07 13:17:56;;;;;;;31.90;17.73;;;;;;;;;;10355594;28;20411;-81
2023/03/07 13:23:10;;;;;;;29.27;16.83;;;;;;;;;;10338659;28;20439;-81
2023/03/07 13:28:51;;;;;;;28.83;16.65;;;;;;;;;;10348211;28;20490;-80
2023/03/07 13:33:55;;;;;;;30.95;15.23;;;;;;;;;;10348331;28;20507;-80
2023/03/07 13:38:57;;;;;;;24.08;14.25;;;;;;;;;;10350135;28;20411;-80
2023/03/07 13:44:01;;;;;;;28.48;14.05;;;;;;;;;;10348732;28;20453;-80
2023/03/07 13:49:04;;;;;;;20.27;9.80;;;;;;;;;;10341550;28;20501;-80
2023/03/07 13:54:11;;;;;;;19.17;9.87;;;;;;;;;;10353409;28;20403;-80
2023/03/07 13:59:23;;;;;;;18.05;8.48;;;;;;;;;;10343975;28;20831;-80
2023/03/07 14:04:30;;;;;;;14.57;7.35;;;;;;;;;;10349295;28;20785;-80
2023/03/07 14:09:40;;;;;;;18.93;7.40;;;;;;;;;;10332845;28;20424;-80
2023/03/07 14:14:58;;;;;;;15.65;6.93;;;;;;;;;;10352457;28;20411;-80
2023/03/07 14:20:13;;;;;;;16.40;8.10;;;;;;;;;;10338810;28;20409;-80
2023/03/07 14:25:19;;;;;;;14.05;7.93;;;;;;;;;;10344066;28;20431;-80
2023/03/07 14:30:21;;;;;;;16.65;8.63;;;;;;;;;;10342296;28;20896;-80
2023/03/07 14:35:35;;;;;;;15.17;7.23;;;;;;;;;;10349193;28;20582;-80
2023/03/07 14:40:48;;;;;;;14.27;7.80;;;;;;;;;;10349684;28;20407;-80
2023/03/07 14:45:57;;;;;;;13.30;7.13;;;;;;;;;;10335055;28;20432;-80
2023/03/07 14:51:10;;;;;;;16.25;7.82;;;;;;;;;;10344560;28;20439;-80
2023/03/07 14:56:21;;;;;;;15.73;8.07;;;;;;;;;;10340624;28;20399;-80
2023/03/07 15:01:23;;;;;;;20.55;7.95;;;;;;;;;;10332084;28;20409;-81
2023/03/07 15:06:28;;;;;;;14.05;7.60;;;;;;;;;;10349457;28;20424;-80
2023/03/07 15:11:33;;;;;;;16.00;7.70;;;;;;;;;;10351161;28;20411;-79
2023/03/07 15:16:38;;;;;;;15.67;7.40;;;;;;;;;;10358592;28;20414;-81
2023/03/07 15:21:45;;;;;;;14.13;6.85;;;;;;;;;;10357263;28;20490;-80
2023/03/07 15:26:50;;;;;;;12.45;7.10;;;;;;;;;;10353311;28;20436;-81
2023/03/07 15:31:53;;;;;;;13.27;6.55;;;;;;;;;;10351186;28;20443;-80
2023/03/07 15:37:19;;;;;;;16.98;7.25;;;;;;;;;;10356200;28;20498;-79
2023/03/07 15:42:21;;;;;;;17.88;7.22;;;;;;;;;;10354315;28;20857;-79
2023/03/07 15:47:24;;;;;;;19.00;8.63;;;;;;;;;;10356612;28;20431;-80
2023/03/07 15:52:31;;;;;;;17.88;8.43;;;;;;;;;;10354327;28;20486;-79
2023/03/07 15:57:38;;;;;;;14.73;8.10;;;;;;;;;;10354730;28;20421;-80
2023/03/07 16:02:43;;;;;;;13.52;8.00;;;;;;;;;;10353265;28;20410;-80
2023/03/07 16:07:48;;;;;;;15.90;7.93;;;;;;;;;;10355373;28;20450;-80
2023/03/07 16:12:50;;;;;;;23.08;7.97;;;;;;;;;;10338055;28;20425;-80
2023/03/07 16:17:55;;;;;;;13.80;7.60;;;;;;;;;;10337313;28;20865;-79
2023/03/07 16:22:58;;;;;;;12.82;7.10;;;;;;;;;;10346924;28;20505;-79
2023/03/07 16:28:00;;;;;;;14.15;7.93;;;;;;;;;;10349203;28;20506;-78
2023/03/07 16:33:02;;;;;;;18.80;8.90;;;;;;;;;;10339614;28;20488;-79
2023/03/07 16:38:06;;;;;;;14.25;7.70;;;;;;;;;;10335579;28;20465;-79
2023/03/07 16:43:25;;;;;;;14.60;8.07;;;;;;;;;;10343062;28;20423;-80
2023/03/07 16:48:27;;;;;;;16.73;7.72;;;;;;;;;;10331870;28;20422;-80
2023/03/07 16:53:30;;;;;;;15.70;7.77;;;;;;;;;;10357259;23;20672;-79
2023/03/07 16:58:33;;;;;;;17.27;7.97;;;;;;;;;;10352865;28;20614;-80
2023/03/07 17:03:35;;;;;;;17.38;8.07;;;;;;;;;;10353344;28;20430;-81
2023/03/07 17:08:39;;;;;;;21.33;8.80;;;;;;;;;;10350780;28;20421;-79
2023/03/07 17:13:40;;;;;;;20.00;12.37;;;;;;;;;;10352218;28;20899;-79
2023/03/07 17:18:42;;;;;;;15.80;9.77;;;;;;;;;;10354745;28;20518;-81
2023/03/07 17:23:48;;;;;;;19.77;9.33;;;;;;;;;;10361228;28;20445;-80
2023/03/07 17:28:50;;;;;;;20.65;12.30;;;;;;;;;;10360163;28;20412;-80
2023/03/07 17:33:52;;;;;;;22.20;11.70;;;;;;;;;;10358706;28;20781;-80
2023/03/07 17:38:56;;;;;;;19.27;12.02;;;;;;;;;;10358996;28;20499;-80
2023/03/07 17:43:58;;;;;;;19.00;10.98;;;;;;;;;;10358353;28;20427;-80
2023/03/07 17:49:00;;;;;;;25.37;14.83;;;;;;;;;;10360326;28;20515;-80
2023/03/07 17:54:07;;;;;;;24.30;12.55;;;;;;;;;;10356406;28;20417;-80
2023/03/07 17:59:09;;;;;;;22.70;12.45;;;;;;;;;;10354946;28;20838;-80
2023/03/07 18:04:11;;;;;;;22.00;12.15;;;;;;;;;;10351059;28;20537;-80
2023/03/07 18:09:17;;;;;;;21.00;12.47;;;;;;;;;;10353641;28;20424;-80
2023/03/07 18:14:19;;;;;;;20.20;11.93;;;;;;;;;;10345502;28;20458;-80
2023/03/07 18:19:21;;;;;;;21.90;11.55;;;;;;;;;;10329530;28;20415;-80
2023/03/07 18:24:26;;;;;;;21.17;11.70;;;;;;;;;;10342982;28;20455;-80
2023/03/07 18:29:29;;;;;;;29.77;15.82;;;;;;;;;;10328413;28;20795;-80
2023/03/07 18:34:31;;;;;;;23.70;14.47;;;;;;;;;;10346055;28;20502;-80
2023/03/07 18:39:35;;;;;;;29.45;16.17;;;;;;;;;;10338092;28;20888;-80
2023/03/07 18:44:39;;;;;;;38.10;17.42;;;;;;;;;;10338559;28;20430;-83
2023/03/07 18:49:41;;;;;;;35.33;18.27;;;;;;;;;;10345068;28;20422;-80
2023/03/07 18:54:44;;;;;;;35.05;16.27;;;;;;;;;;10346665;28;20429;-84
2023/03/07 18:59:46;;;;;;;24.17;15.52;;;;;;;;;;10346347;28;20632;-81
2023/03/07 19:04:48;;;;;;;30.10;18.80;;;;;;;;;;10351420;28;20465;-81
2023/03/07 19:09:52;;;;;;;30.35;17.83;;;;;;;;;;10347803;28;20411;-80
2023/03/07 19:14:56;;;;;;;25.63;16.52;;;;;;;;;;10352560;28;20418;-82
2023/03/07 19:20:04;;;;;;;30.20;16.90;;;;;;;;;;10348531;28;20426;-81
2023/03/07 19:25:09;;;;;;;25.13;15.05;;;;;;;;;;10349033;28;20423;-82
2023/03/07 19:30:13;;;;;;;25.20;15.55;;;;;;;;;;10351355;28;20415;-82
2023/03/07 19:35:15;;;;;;;40.75;22.70;;;;;;;;;;10347917;28;20473;-83
2023/03/07 19:40:20;;;;;;;32.50;18.30;;;;;;;;;;10347875;28;21227;-81
2023/03/07 19:45:22;;;;;;;28.05;17.10;;;;;;;;;;10349156;28;20430;-82
2023/03/07 19:50:24;;;;;;;26.85;15.65;;;;;;;;;;10348573;28;20423;-82
2023/03/07 19:55:27;;;;;;;27.58;16.13;;;;;;;;;;10347737;28;20414;-83
2023/03/07 20:00:28;;;;;;;25.38;16.45;;;;;;;;;;10347818;28;20418;-82
2023/03/07 20:05:30;;;;;;;27.02;16.67;;;;;;;;;;10350103;28;20995;-82
2023/03/07 20:10:34;;;;;;;30.60;17.33;;;;;;;;;;10345924;28;20431;-82
2023/03/07 20:15:36;;;;;;;32.80;19.17;;;;;;;;;;10353053;28;20434;-82
2023/03/07 20:20:38;;;;;;;35.63;20.50;;;;;;;;;;10349338;28;20422;-82
2023/03/07 20:25:47;;;;;;;39.60;22.50;;;;;;;;;;10349098;28;20453;-83
2023/03/07 20:30:48;;;;;;;39.83;22.57;;;;;;;;;;10349720;28;20507;-82
2023/03/07 20:36:00;;;;;;;39.83;22.92;;;;;;;;;;10352302;28;20719;-82
2023/03/07 20:41:10;;;;;;;42.40;24.50;;;;;;;;;;10357935;28;20809;-82
2023/03/07 20:46:14;;;;;;;41.38;24.10;;;;;;;;;;10343690;28;20440;-83
2023/03/07 20:51:18;;;;;;;42.63;24.23;;;;;;;;;;10343438;28;20426;-83
2023/03/07 20:56:23;;;;;;;40.72;23.73;;;;;;;;;;10336542;28;20443;-83
2023/03/07 21:01:27;;;;;;;40.90;24.17;;;;;;;;;;10337386;28;20515;-83
2023/03/07 21:06:28;;;;;;;43.40;25.35;;;;;;;;;;10352846;28;20437;-83
2023/03/07 21:11:32;;;;;;;44.97;25.70;;;;;;;;;;10338814;28;20492;-81
2023/03/07 21:16:34;;;;;;;45.20;25.30;;;;;;;;;;10332513;28;20465;-84
2023/03/07 21:21:36;;;;;;;43.22;24.27;;;;;;;;;;10333454;28;20511;-82
2023/03/07 21:26:39;;;;;;;44.50;24.73;;;;;;;;;;10343787;28;20992;-83
2023/03/07 21:31:41;;;;;;;41.65;23.52;;;;;;;;;;10332678;28;20419;-83
2023/03/07 21:36:44;;;;;;;41.63;22.43;;;;;;;;;;10336942;28;20417;-83
2023/03/07 21:41:47;;;;;;;37.60;21.83;;;;;;;;;;10343537;28;20436;-82
2023/03/07 21:46:49;;;;;;;35.17;21.70;;;;;;;;;;10335625;28;20430;-82
2023/03/07 21:51:51;;;;;;;41.28;21.98;;;;;;;;;;10334448;28;20427;-83
2023/03/07 21:56:54;;;;;;;36.03;22.67;;;;;;;;;;10278336;28;1957736;-83
2023/03/07 22:01:56;;;;;;;38.77;22.13;;;;;;;;;;10352979;28;20436;-83
2023/03/07 22:06:58;;;;;;;39.90;23.23;;;;;;;;;;10335985;28;20460;-83
2023/03/07 22:12:01;;;;;;;38.63;22.48;;;;;;;;;;10346126;28;20846;-84
2023/03/07 22:17:03;;;;;;;40.40;21.85;;;;;;;;;;10349141;28;20809;-83
2023/03/07 22:22:05;;;;;;;37.97;22.50;;;;;;;;;;10354716;28;20409;-83
2023/03/07 22:27:08;;;;;;;42.35;22.70;;;;;;;;;;10350629;28;20467;-83
2023/03/07 22:32:10;;;;;;;38.58;22.13;;;;;;;;;;10360721;28;20999;-83
2023/03/07 22:37:12;;;;;;;41.97;23.57;;;;;;;;;;10358886;28;20809;-83
2023/03/07 22:42:15;;;;;;;56.20;27.70;;;;;;;;;;10364411;28;20762;-83
2023/03/07 22:47:17;;;;;;;42.60;23.98;;;;;;;;;;10342835;28;21200;-84
2023/03/07 22:52:19;;;;;;;46.67;24.73;;;;;;;;;;10335105;28;20498;-82
2023/03/07 22:57:22;;;;;;;46.28;25.65;;;;;;;;;;10353054;28;20507;-84
2023/03/07 23:02:24;;;;;;;48.22;24.70;;;;;;;;;;10355435;28;20486;-83
2023/03/07 23:07:26;;;;;;;44.55;24.63;;;;;;;;;;10348557;28;20797;-83
2023/03/07 23:12:29;;;;;;;39.35;23.42;;;;;;;;;;10351974;28;20422;-82
2023/03/07 23:17:31;;;;;;;42.65;24.63;;;;;;;;;;10351105;28;20488;-82
2023/03/07 23:22:33;;;;;;;40.67;22.88;;;;;;;;;;10353977;28;20417;-82
2023/03/07 23:27:36;;;;;;;40.15;22.85;;;;;;;;;;10343646;28;20428;-83
2023/03/07 23:32:38;;;;;;;43.05;22.42;;;;;;;;;;10346105;28;20931;-82
2023/03/07 23:37:41;;;;;;;39.05;22.02;;;;;;;;;;10344441;28;20403;-81
2023/03/07 23:42:44;;;;;;;36.60;21.73;;;;;;;;;;10352662;28;20430;-84
2023/03/07 23:47:46;;;;;;;36.25;21.35;;;;;;;;;;10333228;28;20439;-84
2023/03/07 23:52:48;;;;;;;40.13;22.50;;;;;;;;;;10351503;28;20883;-84
2023/03/07 23:57:51;;;;;;;36.25;21.63;;;;;;;;;;10341749;28;20449;-84
